Time;durP1;ratioP1;P1;durP2;ratioP2;P2;SDS_P1;SDS_P2;PMS_P1;PMS_P2;Temp;Humidity;BMP_temperature;BMP_pressure;BME280_temperature;BME280_humidity;BME280_pressure;Samples;Min_cycle;Max_cycle;Signal;HPM_P1;HPM_P2
2022/08/12 00:43:25;;;;;;;5.18;2.38;;;18.80;99.90;;;;;;5047806;28;20095;-72
2022/08/12 00:48:37;;;;;;;2.97;2.65;;;18.70;99.90;;;;;;5054067;28;20052;-72
2022/08/12 00:51:04;;;;;;;2.97;2.38;;;18.70;99.90;;;;;;5053343;28;20553;-73
2022/08/12 00:53:31;;;;;;;3.38;2.15;;;18.80;99.90;;;;;;5053136;28;20544;-72
2022/08/12 00:55:59;;;;;;;2.70;2.38;;;18.80;99.90;;;;;;5052747;28;20017;-72
2022/08/12 00:58:30;;;;;;;3.88;2.35;;;18.80;99.90;;;;;;5053583;28;20021;-72
2022/08/12 01:01:06;;;;;;;4.82;2.10;;;18.70;99.90;;;;;;5053734;28;20032;-72
2022/08/12 01:11:53;;;;;;;6.78;2.40;;;18.50;99.90;;;;;;5053212;28;20028;-73
2022/08/12 01:14:24;;;;;;;3.42;2.63;;;18.50;99.90;;;;;;5051607;28;20067;-73
2022/08/12 01:16:54;;;;;;;4.68;2.78;;;18.60;99.90;;;;;;5059775;28;20024;-72
2022/08/12 01:19:21;;;;;;;3.03;2.47;;;18.70;99.90;;;;;;5053049;28;20052;-72
2022/08/12 01:22:24;;;;;;;8.13;2.85;;;18.80;99.90;;;;;;5052975;28;20498;-72
2022/08/12 01:24:59;;;;;;;4.05;2.28;;;18.80;99.90;;;;;;5053100;28;20107;-72
2022/08/12 01:27:27;;;;;;;3.05;2.30;;;18.80;99.90;;;;;;5053061;28;20055;-73
2022/08/12 01:29:56;;;;;;;3.78;2.40;;;18.80;99.90;;;;;;5052639;28;20495;-72
2022/08/12 01:32:25;;;;;;;5.00;3.15;;;18.70;99.90;;;;;;5052761;28;20074;-73
2022/08/12 01:35:05;;;;;;;4.93;3.08;;;18.80;99.90;;;;;;5052734;28;20023;-72
2022/08/12 01:37:56;;;;;;;4.15;2.70;;;18.70;99.90;;;;;;5052687;28;20039;-72
2022/08/12 01:40:27;;;;;;;5.43;2.83;;;18.70;99.90;;;;;;5041454;28;20045;-72
2022/08/12 01:42:57;;;;;;;3.10;2.50;;;18.60;99.90;;;;;;5034718;28;20028;-72
2022/08/12 01:45:25;;;;;;;4.88;2.45;;;18.60;99.90;;;;;;5052292;28;20367;-73
2022/08/12 01:48:11;;;;;;;4.85;2.60;;;18.70;99.90;;;;;;5052618;28;20444;-72
2022/08/12 01:50:56;;;;;;;3.47;2.60;;;18.60;99.90;;;;;;5046657;28;20025;-72
2022/08/12 01:53:25;;;;;;;6.25;2.65;;;18.60;99.90;;;;;;5046757;28;20082;-72
2022/08/12 01:55:51;;;;;;;4.68;2.83;;;18.70;99.90;;;;;;5052391;28;20017;-72
2022/08/12 01:58:26;;;;;;;3.33;2.85;;;18.70;99.90;;;;;;5034521;28;20028;-72
2022/08/12 02:01:04;;;;;;;5.65;3.10;;;18.70;99.90;;;;;;5052035;28;20071;-73
2022/08/12 02:12:27;;;;;;;7.55;3.33;;;18.60;99.90;;;;;;5052647;28;20044;-72
2022/08/12 02:15:23;;;;;;;3.97;2.70;;;18.60;99.90;;;;;;5050855;28;20092;-73
2022/08/12 02:18:35;;;;;;;4.95;2.55;;;18.60;99.90;;;;;;5044906;28;20021;-73
2022/08/12 02:21:11;;;;;;;3.72;2.90;;;18.50;99.90;;;;;;5020694;28;20080;-73
2022/08/12 02:23:39;;;;;;;3.92;2.90;;;18.40;99.90;;;;;;5051822;28;20040;-73
2022/08/12 02:26:08;;;;;;;5.10;3.08;;;18.40;99.90;;;;;;5051647;28;20021;-73
2022/08/12 02:28:36;;;;;;;6.15;2.72;;;18.30;99.90;;;;;;5051619;28;20024;-72
2022/08/12 02:31:05;;;;;;;4.35;3.15;;;18.30;99.90;;;;;;5051437;28;20486;-72
2022/08/12 02:33:33;;;;;;;5.32;2.92;;;18.30;99.90;;;;;;5051871;28;20032;-72
2022/08/12 02:36:03;;;;;;;5.15;3.00;;;18.20;99.90;;;;;;5051034;28;20029;-73
2022/08/12 02:38:30;;;;;;;7.07;3.40;;;18.30;99.90;;;;;;5051656;28;20020;-72
2022/08/12 02:41:00;;;;;;;6.90;3.10;;;18.20;99.90;;;;;;5050942;28;20509;-72
2022/08/12 02:43:38;;;;;;;5.57;2.90;;;18.20;99.90;;;;;;5051025;28;20504;-72
2022/08/12 02:46:08;;;;;;;5.15;3.08;;;18.30;99.90;;;;;;5051509;28;20107;-72
2022/08/12 02:48:50;;;;;;;3.67;2.67;;;18.20;99.90;;;;;;5051602;28;20489;-72
2022/08/12 02:51:32;;;;;;;5.07;2.63;;;18.10;99.90;;;;;;5051851;28;20067;-72
2022/08/12 02:54:02;;;;;;;6.32;3.90;;;18.00;99.90;;;;;;5033484;28;20071;-73
2022/08/12 02:56:29;;;;;;;4.20;3.13;;;17.90;99.90;;;;;;5051362;28;20029;-72
2022/08/12 02:58:57;;;;;;;4.13;3.00;;;17.80;99.90;;;;;;5050873;28;20013;-73
2022/08/12 03:01:32;;;;;;;4.78;3.10;;;17.70;99.90;;;;;;5044269;28;20025;-72
2022/08/12 03:04:00;;;;;;;4.13;2.70;;;17.60;99.90;;;;;;5051505;28;20473;-73
2022/08/12 03:06:32;;;;;;;3.50;3.17;;;17.50;99.90;;;;;;5051242;28;20470;-72
2022/08/12 03:08:58;;;;;;;5.93;3.03;;;17.40;99.90;;;;;;5051199;28;20024;-72
2022/08/12 03:12:06;;;;;;;3.38;2.55;;;17.30;99.90;;;;;;5050709;28;20326;-72
2022/08/12 03:14:34;;;;;;;5.55;3.22;;;17.30;99.90;;;;;;5047300;28;20017;-73
2022/08/12 03:17:12;;;;;;;3.10;2.60;;;17.20;99.90;;;;;;5050838;28;20025;-72
2022/08/12 03:19:38;;;;;;;4.22;3.20;;;17.00;99.90;;;;;;5046178;28;20017;-73
2022/08/12 03:22:11;;;;;;;6.65;3.00;;;17.00;99.90;;;;;;5055307;28;20070;-72
2022/08/12 03:24:41;;;;;;;3.58;2.63;;;17.00;99.90;;;;;;5055234;28;20032;-72
2022/08/12 03:27:09;;;;;;;5.65;3.08;;;16.90;99.90;;;;;;5055336;28;20025;-73
2022/08/12 03:29:41;;;;;;;5.15;3.35;;;16.90;99.90;;;;;;5048100;28;20527;-72
2022/08/12 03:32:07;;;;;;;4.03;2.72;;;16.80;99.90;;;;;;5037021;28;20021;-73
2022/08/12 03:34:35;;;;;;;5.68;3.03;;;16.80;99.90;;;;;;5054843;28;20025;-73
2022/08/12 03:37:03;;;;;;;6.75;3.70;;;16.70;99.90;;;;;;5054427;28;20017;-73
2022/08/12 03:42:26;;;;;;;5.60;3.38;;;16.70;99.90;;;;;;5054816;28;20028;-73
2022/08/12 04:01:57;;;;;;;5.88;3.58;;;16.50;99.90;;;;;;5054710;28;20087;-73
2022/08/12 04:04:33;;;;;;;5.80;3.40;;;16.50;99.90;;;;;;5054731;28;20029;-72
2022/08/12 04:07:08;;;;;;;5.90;3.72;;;16.60;99.90;;;;;;5048685;28;20386;-72
2022/08/12 04:09:38;;;;;;;8.80;3.63;;;16.60;99.90;;;;;;5047380;28;20056;-72
2022/08/12 04:14:51;;;;;;;7.63;3.50;;;16.70;99.90;;;;;;5053113;28;20063;-72
2022/08/12 04:17:18;;;;;;;7.35;4.22;;;16.70;99.90;;;;;;5054041;28;20025;-72
2022/08/12 04:19:46;;;;;;;7.30;3.40;;;16.90;99.90;;;;;;5054039;28;20041;-72
2022/08/12 04:22:12;;;;;;;9.25;4.65;;;16.90;99.90;;;;;;5054014;28;20520;-72
2022/08/12 04:24:40;;;;;;;6.53;4.15;;;17.00;99.90;;;;;;5054035;28;20021;-72
2022/08/12 04:27:09;;;;;;;11.20;4.63;;;17.10;99.90;;;;;;5053771;28;20017;-72
2022/08/12 04:29:37;;;;;;;6.93;4.00;;;17.10;99.90;;;;;;5053509;28;20021;-72
2022/08/12 04:32:03;;;;;;;7.53;3.67;;;17.10;99.90;;;;;;5052500;28;20579;-72
2022/08/12 04:34:29;;;;;;;9.88;3.83;;;17.10;99.90;;;;;;5036136;28;20025;-72
2022/08/12 04:36:55;;;;;;;7.70;4.25;;;17.00;99.90;;;;;;5053392;28;20033;-73
2022/08/12 04:39:22;;;;;;;5.57;3.83;;;17.10;99.90;;;;;;5053571;28;20036;-72
2022/08/12 04:41:50;;;;;;;3.85;3.35;;;17.10;99.90;;;;;;5053437;28;20032;-72
2022/08/12 04:44:16;;;;;;;5.07;4.13;;;17.10;99.90;;;;;;5053360;28;20105;-73
2022/08/12 04:46:42;;;;;;;6.03;3.60;;;17.10;99.90;;;;;;5052392;28;20103;-72
2022/08/12 04:49:08;;;;;;;4.93;3.67;;;17.10;99.90;;;;;;5053395;28;20426;-73
2022/08/12 04:51:34;;;;;;;7.45;4.20;;;17.00;99.90;;;;;;5053457;28;20647;-72
2022/08/12 04:54:01;;;;;;;7.32;3.97;;;17.00;99.90;;;;;;5053639;28;20052;-72
2022/08/12 04:56:28;;;;;;;7.97;3.80;;;17.00;99.90;;;;;;5053401;28;20025;-72
2022/08/12 04:58:55;;;;;;;5.18;3.10;;;16.90;99.90;;;;;;5053393;28;20074;-73
2022/08/12 05:01:26;;;;;;;6.53;3.25;;;16.90;99.90;;;;;;5058990;28;20521;-72
2022/08/12 05:03:54;;;;;;;6.93;4.07;;;16.90;99.90;;;;;;5052916;28;20025;-72
2022/08/12 05:06:19;;;;;;;5.72;3.47;;;16.80;99.90;;;;;;5052969;28;20055;-73
2022/08/12 05:08:46;;;;;;;5.22;3.83;;;16.70;99.90;;;;;;5052827;28;20470;-72
2022/08/12 05:11:12;;;;;;;5.30;3.63;;;16.70;99.90;;;;;;5053078;28;20032;-72
2022/08/12 05:13:39;;;;;;;9.30;3.58;;;16.70;99.90;;;;;;5035233;28;20025;-72
2022/08/12 05:16:06;;;;;;;6.13;3.50;;;16.70;99.90;;;;;;5052839;28;20021;-72
2022/08/12 05:18:39;;;;;;;6.70;3.65;;;16.70;99.90;;;;;;5052888;28;20437;-72
2022/08/12 05:21:06;;;;;;;4.47;3.05;;;16.70;99.90;;;;;;5034973;28;20048;-73
2022/08/12 05:23:34;;;;;;;6.13;3.35;;;16.80;99.90;;;;;;5052967;28;20489;-72
2022/08/12 05:26:00;;;;;;;4.13;3.15;;;16.70;99.90;;;;;;5050838;28;20031;-72
2022/08/12 05:28:27;;;;;;;6.03;3.90;;;16.80;99.90;;;;;;5054130;28;20409;-73
2022/08/12 05:30:54;;;;;;;4.95;3.20;;;16.70;99.90;;;;;;5052486;28;20017;-72
2022/08/12 05:33:25;;;;;;;4.43;3.40;;;16.80;99.90;;;;;;5052651;28;20420;-73
2022/08/12 05:35:51;;;;;;;6.57;3.95;;;16.80;99.90;;;;;;5052787;28;20462;-73
2022/08/12 05:41:17;;;;;;;7.90;3.42;;;17.00;99.90;;;;;;5052474;28;20047;-72
2022/08/12 05:43:47;;;;;;;4.07;3.03;;;17.00;99.90;;;;;;5051892;28;20044;-73
2022/08/12 05:46:13;;;;;;;6.38;3.10;;;17.10;99.90;;;;;;5052114;28;20033;-72
2022/08/12 05:48:40;;;;;;;4.45;3.75;;;17.10;99.90;;;;;;5058960;28;20100;-72
2022/08/12 05:51:06;;;;;;;7.13;3.88;;;17.20;99.90;;;;;;5052678;28;21238;-73
2022/08/12 05:53:32;;;;;;;8.63;3.67;;;17.30;99.90;;;;;;5052098;28;20009;-72
2022/08/12 05:55:58;;;;;;;7.68;4.10;;;17.30;99.90;;;;;;5052214;28;20102;-73
2022/08/12 05:58:23;;;;;;;3.70;3.40;;;17.50;99.90;;;;;;5052332;28;20040;-73
2022/08/12 06:00:49;;;;;;;5.90;3.72;;;17.60;99.90;;;;;;5048573;28;20572;-73
2022/08/12 06:03:16;;;;;;;3.78;3.40;;;17.80;99.90;;;;;;5051895;28;20021;-72
2022/08/12 06:05:44;;;;;;;5.15;3.55;;;18.00;99.90;;;;;;5052447;28;20584;-73
2022/08/12 06:08:10;;;;;;;7.38;3.63;;;18.10;99.90;;;;;;5052190;28;20021;-73
2022/08/12 06:10:36;;;;;;;6.88;3.65;;;18.30;99.90;;;;;;5049806;28;20028;-72
2022/08/12 06:13:05;;;;;;;3.83;2.95;;;18.40;99.90;;;;;;5051096;28;20017;-72
2022/08/12 06:15:36;;;;;;;5.32;3.38;;;18.60;99.90;;;;;;5050821;28;20021;-73
2022/08/12 06:18:08;;;;;;;5.35;3.55;;;18.80;99.90;;;;;;5033294;28;20389;-73
2022/08/12 06:20:35;;;;;;;4.32;3.63;;;19.00;99.90;;;;;;5049662;28;20037;-72
2022/08/12 06:23:01;;;;;;;4.25;3.15;;;19.20;99.90;;;;;;5050656;28;20092;-72
2022/08/12 06:25:27;;;;;;;8.20;3.92;;;19.30;99.90;;;;;;5052071;28;20490;-72
2022/08/12 06:27:54;;;;;;;4.10;3.22;;;19.40;99.90;;;;;;5051864;28;20044;-73
2022/08/12 06:30:20;;;;;;;4.78;3.35;;;19.40;99.90;;;;;;5051065;28;20066;-73
2022/08/12 06:32:48;;;;;;;6.57;3.20;;;19.50;99.90;;;;;;5051102;28;20077;-73
2022/08/12 06:35:16;;;;;;;3.38;3.05;;;19.60;99.90;;;;;;5046807;28;20025;-73
2022/08/12 06:37:48;;;;;;;6.53;3.70;;;19.60;99.90;;;;;;5053545;28;20028;-73
2022/08/12 06:40:15;;;;;;;5.45;3.72;;;19.70;99.90;;;;;;5052703;28;20071;-73
2022/08/12 06:42:47;;;;;;;4.30;3.38;;;19.70;99.90;;;;;;5050612;28;20017;-73
2022/08/12 06:45:13;;;;;;;;;;;19.70;99.90;;;;;;5022623;28;20037;-73
2022/08/12 06:47:39;;;;;;;7.72;3.08;;;19.80;99.90;;;;;;5043038;28;19909;-73
2022/08/12 06:50:05;;;;;;;9.57;4.00;;;19.80;99.90;;;;;;5037243;28;20033;-73
2022/08/12 06:52:31;;;;;;;6.40;3.38;;;19.80;99.90;;;;;;5041931;28;20024;-73
2022/08/12 06:54:58;;;;;;;6.07;3.72;;;19.90;99.90;;;;;;5049209;28;20025;-73
2022/08/12 06:57:28;;;;;;;7.50;3.85;;;19.90;99.90;;;;;;5049340;28;20029;-73
2022/08/12 06:59:54;;;;;;;3.95;3.03;;;20.00;99.90;;;;;;5049677;28;20032;-73
2022/08/12 07:02:21;;;;;;;5.82;3.15;;;20.00;99.90;;;;;;5050141;28;20031;-73
2022/08/12 07:04:48;;;;;;;6.32;3.30;;;20.10;99.90;;;;;;5049799;28;20152;-72
2022/08/12 07:07:14;;;;;;;6.70;3.92;;;20.10;99.90;;;;;;5048425;28;20532;-73
2022/08/12 07:09:41;;;;;;;6.28;3.40;;;20.20;99.90;;;;;;5033201;28;20124;-73
2022/08/12 07:12:15;;;;;;;7.72;3.35;;;20.40;99.90;;;;;;5050714;28;20409;-73
2022/08/12 07:14:41;;;;;;;6.47;3.67;;;20.50;99.90;;;;;;5049545;28;20359;-73
2022/08/12 07:17:07;;;;;;;7.32;3.22;;;20.70;99.90;;;;;;5050649;28;20028;-72
2022/08/12 07:19:33;;;;;;;4.93;3.55;;;20.70;99.90;;;;;;5057686;28;20033;-72
2022/08/12 07:22:05;;;;;;;6.15;3.08;;;20.80;99.90;;;;;;5050431;28;20092;-73
2022/08/12 07:24:31;;;;;;;4.82;2.58;;;20.80;99.90;;;;;;5050342;28;20100;-72
2022/08/12 07:26:57;;;;;;;5.20;3.35;;;21.00;99.90;;;;;;5051022;28;20040;-73
2022/08/12 07:29:24;;;;;;;5.53;3.42;;;21.10;99.90;;;;;;5050828;28;20021;-73
2022/08/12 07:31:51;;;;;;;6.30;2.55;;;21.20;99.90;;;;;;5050137;28;20382;-73
2022/08/12 07:34:16;;;;;;;7.35;3.70;;;21.30;99.90;;;;;;5048745;28;20374;-73
2022/08/12 07:36:47;;;;;;;6.38;3.15;;;21.30;99.90;;;;;;5044211;28;20027;-74
2022/08/12 07:39:13;;;;;;;6.72;2.83;;;21.40;99.90;;;;;;5044970;28;20025;-73
2022/08/12 07:41:39;;;;;;;3.22;2.70;;;21.40;99.90;;;;;;5050785;28;20025;-74
2022/08/12 07:44:07;;;;;;;4.38;2.90;;;21.60;99.90;;;;;;5033087;28;20068;-74
2022/08/12 07:46:37;;;;;;;7.25;2.70;;;21.60;99.90;;;;;;5031006;28;20547;-73
2022/08/12 07:49:09;;;;;;;3.88;3.20;;;21.70;99.90;;;;;;5051236;28;20079;-75
2022/08/12 07:51:35;;;;;;;4.47;2.38;;;21.90;99.90;;;;;;5085551;22;20033;-74
2022/08/12 07:54:07;;;;;;;4.93;3.03;;;21.90;99.90;;;;;;5069313;28;20020;-72
2022/08/12 07:56:34;;;;;;;5.78;3.20;;;22.10;99.90;;;;;;5070344;28;20028;-75
2022/08/12 07:59:01;;;;;;;3.45;2.67;;;22.30;99.90;;;;;;5068771;28;20071;-73
2022/08/12 08:01:28;;;;;;;3.13;2.45;;;22.40;99.90;;;;;;5070259;28;20028;-73
2022/08/12 08:06:43;;;;;;;5.25;2.35;;;22.70;99.90;;;;;;5073403;28;20039;-73
2022/08/12 08:09:12;;;;;;;5.82;2.58;;;22.80;99.90;;;;;;5055406;28;20020;-72
2022/08/12 08:14:28;;;;;;;2.88;2.10;;;23.00;99.90;;;;;;5068264;28;20028;-74
2022/08/12 08:16:55;;;;;;;4.43;1.83;;;23.20;99.90;;;;;;5067071;28;20481;-74
2022/08/12 08:19:25;;;;;;;4.93;2.08;;;23.30;99.90;;;;;;5073428;28;20016;-75
2022/08/12 08:21:56;;;;;;;5.63;1.85;;;23.50;99.90;;;;;;5073561;28;20407;-74
2022/08/12 08:24:26;;;;;;;2.45;1.70;;;23.60;99.90;;;;;;5073952;28;20026;-73
2022/08/12 08:26:55;;;;;;;4.50;2.23;;;23.90;99.80;;;;;;5067032;28;20052;-73
2022/08/12 08:29:22;;;;;;;2.92;2.00;;;23.90;97.10;;;;;;5073112;28;20241;-73
2022/08/12 08:31:52;;;;;;;3.63;2.38;;;24.00;96.40;;;;;;5073318;28;20031;-72
2022/08/12 08:34:19;;;;;;;7.50;2.28;;;24.20;94.70;;;;;;5073540;28;20021;-72
2022/08/12 08:36:45;;;;;;;2.88;1.90;;;24.40;93.30;;;;;;5073468;28;20027;-73
2022/08/12 08:39:12;;;;;;;3.55;2.10;;;24.50;91.60;;;;;;5073080;28;20104;-73
2022/08/12 08:44:23;;;;;;;3.83;2.13;;;24.80;88.40;;;;;;5068469;28;20115;-72
2022/08/12 08:46:49;;;;;;;4.82;2.17;;;25.00;76.70;;;;;;5072834;28;20024;-72
2022/08/12 08:49:18;;;;;;;3.08;2.03;;;25.20;69.40;;;;;;5072731;28;20473;-72
2022/08/12 08:51:44;;;;;;;2.17;1.77;;;25.50;66.50;;;;;;5093483;22;20482;-80
2022/08/12 08:54:11;;;;;;;4.35;2.63;;;25.70;68.10;;;;;;5059973;28;20051;-81
2022/08/12 08:56:48;;;;;;;2.35;2.00;;;25.90;64.40;;;;;;5053195;28;20044;-80
2022/08/12 08:59:16;;;;;;;6.05;2.15;;;26.30;57.70;;;;;;5054295;28;20452;-80
2022/08/12 09:01:42;;;;;;;3.63;2.05;;;26.50;56.90;;;;;;5065380;28;20017;-79
2022/08/12 09:04:11;;;;;;;3.70;2.60;;;26.70;59.00;;;;;;5046595;28;20052;-79
2022/08/12 09:06:38;;;;;;;2.60;1.95;;;26.80;59.70;;;;;;5053295;28;20013;-80
2022/08/12 09:09:09;;;;;;;4.72;2.10;;;27.10;53.40;;;;;;5031781;28;20075;-80
2022/08/12 09:14:29;;;;;;;3.40;2.58;;;27.40;51.00;;;;;;4994412;28;20121;-79
2022/08/12 09:16:55;;;;;;;1.98;1.85;;;27.80;48.20;;;;;;5051739;28;20099;-80
2022/08/12 09:19:21;;;;;;;6.55;2.08;;;28.10;46.50;;;;;;5034642;28;20025;-78
2022/08/12 09:21:47;;;;;;;2.95;1.80;;;28.70;45.70;;;;;;5052195;28;20071;-78
2022/08/12 09:24:18;;;;;;;6.90;2.13;;;29.20;43.50;;;;;;5052905;28;20021;-81
2022/08/12 09:26:46;;;;;;;4.03;2.00;;;29.50;41.70;;;;;;5034944;28;20025;-80
2022/08/12 09:29:13;;;;;;;2.20;2.00;;;29.60;42.20;;;;;;5035030;28;20548;-81
2022/08/12 09:31:40;;;;;;;3.55;1.98;;;29.60;40.40;;;;;;5052270;28;20025;-80
2022/08/12 09:34:07;;;;;;;4.85;2.20;;;29.50;39.00;;;;;;5059892;28;20052;-78
2022/08/12 09:36:37;;;;;;;3.83;2.22;;;29.90;39.10;;;;;;5052160;28;20034;-79
2022/08/12 09:39:06;;;;;;;2.10;1.90;;;30.80;38.40;;;;;;5051991;28;20032;-80
2022/08/12 09:41:42;;;;;;;6.20;2.00;;;31.90;36.20;;;;;;5052015;28;20028;-80
2022/08/12 09:46:53;;;;;;;3.65;1.67;;;34.60;32.10;;;;;;5045848;28;20102;-81
2022/08/12 09:49:20;;;;;;;6.55;2.10;;;36.20;29.60;;;;;;5052195;28;20490;-78
2022/08/12 09:51:47;;;;;;;1.90;1.70;;;37.00;29.20;;;;;;5051950;28;20040;-78
2022/08/12 09:54:16;;;;;;;2.08;1.63;;;37.90;26.90;;;;;;5052152;28;20033;-79
2022/08/12 09:56:44;;;;;;;2.38;1.55;;;38.20;25.90;;;;;;5051923;28;20028;-79
2022/08/12 09:59:10;;;;;;;2.22;1.40;;;38.80;26.90;;;;;;5051874;28;20100;-79
2022/08/12 10:01:39;;;;;;;1.70;1.60;;;39.70;26.40;;;;;;5051727;28;20024;-79
2022/08/12 10:04:09;;;;;;;2.73;1.43;;;39.70;24.40;;;;;;5052233;28;20031;-79
2022/08/12 10:06:38;;;;;;;1.48;1.33;;;39.80;23.80;;;;;;5051081;28;20025;-80
2022/08/12 10:09:08;;;;;;;1.52;1.27;;;40.30;23.50;;;;;;5051843;28;20445;-80
2022/08/12 10:14:19;;;;;;;3.00;1.75;;;41.00;22.50;;;;;;5044365;28;20725;-79
2022/08/12 10:16:45;;;;;;;2.15;1.60;;;41.30;23.20;;;;;;5040596;28;20037;-79
2022/08/12 10:19:15;;;;;;;3.15;1.65;;;41.50;23.20;;;;;;5043277;28;20431;-79
2022/08/12 10:21:41;;;;;;;4.53;1.63;;;41.70;23.00;;;;;;5044564;28;20016;-80
2022/08/12 10:24:14;;;;;;;2.05;1.63;;;41.90;22.30;;;;;;5035094;28;20262;-79
2022/08/12 10:29:35;;;;;;;2.53;1.50;;;42.20;23.50;;;;;;5044199;28;20505;-79
2022/08/12 10:32:02;;;;;;;1.88;1.73;;;42.90;21.80;;;;;;5048158;28;20064;-79
2022/08/12 10:34:29;;;;;;;4.30;1.90;;;43.50;21.40;;;;;;5040191;28;20108;-79
2022/08/12 10:36:59;;;;;;;4.07;1.42;;;43.00;21.50;;;;;;5029487;28;20075;-80
2022/08/12 10:39:32;;;;;;;1.90;1.52;;;42.60;21.20;;;;;;5050299;28;20017;-80
2022/08/12 10:44:47;;;;;;;2.45;1.30;;;43.80;21.50;;;;;;5050410;28;20027;-80
2022/08/12 10:47:15;;;;;;;4.20;1.60;;;43.60;20.10;;;;;;5050517;28;20024;-80
2022/08/12 10:49:45;;;;;;;3.38;1.40;;;43.80;20.50;;;;;;5033022;28;20021;-80
2022/08/12 10:52:11;;;;;;;3.55;1.75;;;43.60;19.30;;;;;;5053556;28;20017;-80
2022/08/12 10:54:38;;;;;;;2.80;1.42;;;43.80;19.90;;;;;;5048082;28;20562;-80
2022/08/12 10:57:04;;;;;;;3.45;1.83;;;44.10;19.90;;;;;;5043271;28;20113;-80
2022/08/12 10:59:30;;;;;;;1.70;1.60;;;44.20;19.50;;;;;;5027191;28;20061;-80
2022/08/12 11:01:57;;;;;;;2.20;1.50;;;44.40;18.70;;;;;;5050903;28;20029;-80
2022/08/12 11:04:24;;;;;;;2.63;1.27;;;43.60;20.20;;;;;;5045557;28;20017;-80
2022/08/12 11:06:52;;;;;;;3.83;1.70;;;44.10;19.50;;;;;;5043316;28;20100;-81
2022/08/12 11:09:20;;;;;;;2.38;1.42;;;44.40;19.10;;;;;;5046812;28;20120;-80
2022/08/12 11:11:47;;;;;;;2.58;1.33;;;44.40;19.70;;;;;;5051168;28;20080;-82
2022/08/12 11:14:31;;;;;;;3.55;1.58;;;44.30;19.00;;;;;;5051266;28;20048;-82
2022/08/12 11:17:07;;;;;;;3.35;1.60;;;44.30;19.00;;;;;;5044087;28;20079;-80
2022/08/12 11:19:35;;;;;;;5.05;1.90;;;44.60;19.50;;;;;;5050509;28;20713;-82
2022/08/12 11:22:02;;;;;;;2.92;1.58;;;44.50;18.80;;;;;;5047983;28;20029;-83
2022/08/12 11:24:28;;;;;;;5.35;1.52;;;45.00;19.00;;;;;;5050879;28;20021;-81
2022/08/12 11:26:55;;;;;;;2.88;1.48;;;45.10;18.40;;;;;;5050870;28;20025;-81
2022/08/12 11:29:23;;;;;;;2.17;1.65;;;44.90;19.30;;;;;;5050859;28;20025;-83
2022/08/12 11:31:49;;;;;;;1.92;1.50;;;44.60;18.40;;;;;;5053063;28;20083;-82
2022/08/12 11:34:15;;;;;;;2.85;1.50;;;44.60;18.20;;;;;;5050979;28;20021;-86
2022/08/12 11:36:55;;;;;;;4.90;1.52;;;44.70;18.20;;;;;;5057942;28;20025;-84
2022/08/12 11:39:21;;;;;;;5.13;1.48;;;44.90;19.20;;;;;;5046893;28;20037;-83
2022/08/12 11:41:48;;;;;;;1.60;1.45;;;45.20;18.30;;;;;;5036346;28;20071;-83
2022/08/12 11:44:14;;;;;;;3.17;1.50;;;45.20;18.70;;;;;;5054808;28;20072;-85
2022/08/12 11:46:41;;;;;;;1.77;1.58;;;45.70;18.10;;;;;;5053746;28;20104;-84
2022/08/12 11:49:06;;;;;;;2.75;1.50;;;46.60;18.40;;;;;;5034737;28;20482;-80
2022/08/12 11:51:33;;;;;;;1.60;1.50;;;46.60;18.20;;;;;;5081134;22;20091;-72
2022/08/12 11:53:59;;;;;;;2.38;1.52;;;47.60;17.90;;;;;;5071092;28;20028;-73
2022/08/12 11:56:25;;;;;;;1.67;1.38;;;47.40;17.10;;;;;;5068632;28;20021;-72
2022/08/12 11:58:51;;;;;;;2.20;1.50;;;47.40;16.60;;;;;;5067549;28;20095;-72
2022/08/12 12:01:17;;;;;;;1.52;1.42;;;46.50;16.90;;;;;;5065083;28;20579;-72
2022/08/12 12:03:43;;;;;;;2.55;1.40;;;46.40;17.00;;;;;;5054165;28;20025;-73
2022/08/12 12:06:08;;;;;;;3.38;1.50;;;46.70;17.00;;;;;;5057665;28;20036;-73
2022/08/12 12:08:35;;;;;;;3.47;1.50;;;46.50;16.20;;;;;;5051307;28;20013;-72
2022/08/12 12:11:01;;;;;;;2.85;1.33;;;46.80;16.90;;;;;;5048800;28;20189;-73
2022/08/12 12:13:27;;;;;;;4.65;1.50;;;47.40;16.20;;;;;;5051953;28;20542;-73
2022/08/12 12:15:53;;;;;;;4.38;1.65;;;47.30;17.80;;;;;;5053746;28;20119;-73
2022/08/12 12:18:30;;;;;;;2.53;1.65;;;47.10;16.10;;;;;;5044636;28;20029;-73
2022/08/12 12:21:00;;;;;;;1.92;1.48;;;47.80;16.10;;;;;;5047579;28;20038;-73
2022/08/12 12:23:26;;;;;;;2.45;1.50;;;47.60;16.70;;;;;;5045452;28;20021;-73
2022/08/12 12:25:52;;;;;;;2.55;1.58;;;47.00;17.50;;;;;;5042516;28;20017;-73
2022/08/12 12:28:18;;;;;;;2.20;1.23;;;46.60;15.60;;;;;;5050230;28;20021;-73
2022/08/12 12:30:43;;;;;;;3.20;1.48;;;47.10;16.20;;;;;;5053882;28;20078;-73
2022/08/12 12:33:11;;;;;;;3.45;1.40;;;47.40;16.30;;;;;;5053660;28;20044;-74
2022/08/12 12:35:38;;;;;;;1.52;1.30;;;48.10;16.50;;;;;;5050449;28;20139;-73
2022/08/12 12:38:06;;;;;;;4.88;1.45;;;47.70;15.90;;;;;;5042471;28;20499;-74
2022/08/12 12:40:34;;;;;;;3.25;1.27;;;47.40;17.10;;;;;;5035636;28;20432;-73
2022/08/12 12:43:00;;;;;;;1.73;1.50;;;47.60;16.10;;;;;;5047477;28;20029;-73
2022/08/12 12:45:26;;;;;;;2.92;1.85;;;48.20;17.40;;;;;;5032195;28;20075;-73
2022/08/12 12:47:55;;;;;;;3.85;1.33;;;48.30;15.60;;;;;;5049032;28;20418;-73
2022/08/12 12:50:22;;;;;;;1.42;1.33;;;48.10;15.50;;;;;;5076136;22;20074;-81
2022/08/12 12:52:48;;;;;;;1.88;1.30;;;48.10;15.40;;;;;;5045487;28;20516;-82
2022/08/12 12:55:14;;;;;;;1.98;1.42;;;48.80;16.00;;;;;;5048096;28;20033;-82
2022/08/12 12:57:41;;;;;;;4.18;1.42;;;49.90;15.20;;;;;;5040709;28;20834;-82
2022/08/12 13:00:14;;;;;;;4.32;1.75;;;49.00;14.80;;;;;;5066932;28;20041;-81
2022/08/12 13:02:54;;;;;;;2.85;1.30;;;49.30;15.50;;;;;;5046115;28;20017;-82
2022/08/12 13:05:30;;;;;;;4.28;1.70;;;48.10;16.10;;;;;;5041085;28;20378;-82
2022/08/12 13:07:59;;;;;;;2.40;1.45;;;49.40;17.20;;;;;;5066506;28;20025;-86
2022/08/12 13:10:26;;;;;;;1.50;1.40;;;48.40;15.20;;;;;;5057504;28;20024;-87
2022/08/12 13:12:53;;;;;;;5.80;1.75;;;48.40;16.10;;;;;;5048991;28;20024;-86
2022/08/12 13:15:20;;;;;;;3.85;1.30;;;48.80;15.90;;;;;;5061316;28;20025;-83
2022/08/12 13:17:48;;;;;;;2.33;1.40;;;48.70;15.40;;;;;;5038108;28;20075;-81
2022/08/12 13:20:18;;;;;;;2.28;1.65;;;48.30;15.50;;;;;;5066296;28;20045;-81
2022/08/12 13:22:45;;;;;;;2.10;1.65;;;47.40;15.80;;;;;;5044267;28;20025;-81
2022/08/12 13:25:13;;;;;;;2.65;1.67;;;47.20;16.30;;;;;;5051899;28;20028;-81
2022/08/12 13:27:44;;;;;;;2.75;1.77;;;47.60;16.60;;;;;;5052871;28;20032;-83
2022/08/12 13:30:12;;;;;;;1.52;1.38;;;47.90;16.30;;;;;;5052531;28;20029;-81
2022/08/12 13:32:40;;;;;;;2.03;1.48;;;47.90;16.20;;;;;;5052482;28;20024;-81
2022/08/12 13:35:07;;;;;;;4.68;1.52;;;47.90;16.40;;;;;;5053270;28;20021;-82
2022/08/12 13:37:32;;;;;;;3.17;1.83;;;48.10;15.80;;;;;;5053555;28;20021;-81
2022/08/12 13:39:59;;;;;;;3.83;1.63;;;47.20;16.20;;;;;;5052905;28;20032;-81
2022/08/12 13:42:24;;;;;;;2.20;1.30;;;48.00;16.10;;;;;;5035423;28;20025;-82
2022/08/12 13:44:51;;;;;;;2.05;1.42;;;48.30;15.90;;;;;;5056424;28;20013;-81
2022/08/12 13:47:20;;;;;;;3.22;1.40;;;48.70;15.40;;;;;;5053202;28;20118;-80
2022/08/12 13:49:47;;;;;;;1.92;1.55;;;48.40;15.30;;;;;;5053117;28;20027;-81
2022/08/12 13:52:14;;;;;;;2.78;1.58;;;48.50;15.70;;;;;;5057358;28;20056;-82
2022/08/12 13:54:40;;;;;;;2.80;1.50;;;48.50;15.60;;;;;;5039832;28;20035;-86
2022/08/12 13:57:05;;;;;;;3.47;1.63;;;47.60;16.10;;;;;;5053723;28;20508;-82
2022/08/12 13:59:32;;;;;;;2.03;1.60;;;47.60;15.80;;;;;;5059225;28;20013;-84
2022/08/12 14:01:58;;;;;;;3.67;1.75;;;47.00;16.30;;;;;;5060875;28;20031;-90
2022/08/12 14:04:24;;;;;;;2.13;1.27;;;46.70;16.10;;;;;;5038286;28;20025;-81
2022/08/12 14:06:50;;;;;;;3.28;1.95;;;46.70;17.40;;;;;;5057991;28;20074;-81
2022/08/12 14:09:16;;;;;;;2.95;1.52;;;46.40;16.80;;;;;;5043652;28;20079;-81
2022/08/12 14:11:43;;;;;;;1.48;1.38;;;47.90;16.90;;;;;;5057717;28;20021;-82
2022/08/12 14:14:10;;;;;;;1.73;1.60;;;48.10;17.20;;;;;;5057733;28;20036;-88
2022/08/12 14:16:36;;;;;;;1.75;1.50;;;47.30;15.40;;;;;;5034653;28;20048;-85
2022/08/12 14:19:02;;;;;;;4.05;1.45;;;46.90;16.20;;;;;;5058067;28;20029;-81
2022/08/12 14:21:28;;;;;;;1.85;1.70;;;47.40;16.00;;;;;;5048116;22;20039;-74
2022/08/12 14:23:54;;;;;;;2.38;1.65;;;47.10;15.90;;;;;;4968823;28;20111;-75
2022/08/12 14:26:23;;;;;;;3.00;1.95;;;46.70;17.10;;;;;;4962477;28;20102;-74
2022/08/12 14:28:52;;;;;;;4.32;1.70;;;47.00;17.10;;;;;;4964822;28;20019;-74
2022/08/12 14:31:20;;;;;;;3.63;1.80;;;46.90;17.00;;;;;;4969578;28;20030;-74
2022/08/12 14:33:47;;;;;;;2.17;1.60;;;47.10;15.90;;;;;;4969802;28;20037;-76
2022/08/12 14:36:24;;;;;;;3.72;1.60;;;46.60;16.40;;;;;;4969596;28;20031;-75
2022/08/12 14:38:52;;;;;;;2.88;1.60;;;47.20;16.50;;;;;;4969723;28;20090;-74
2022/08/12 14:41:21;;;;;;;2.92;1.65;;;46.10;16.50;;;;;;4969371;28;20035;-75
2022/08/12 14:43:49;;;;;;;1.83;1.70;;;46.70;17.00;;;;;;4969378;28;20484;-75
2022/08/12 14:46:20;;;;;;;1.58;1.42;;;47.00;16.30;;;;;;4969441;28;20027;-75